Overview Statistics Trail Chart Weather Telemetry Raw packets
 

This is the latest recevied weather packets stored in our database for station/object EA5JMY-10. If no packets are shown the sender has not sent any weather packets the latest 10 day(s).

<< 2 3 4 5 6 7 8 >>
Time Temp. Humidity Pressure Rain* Wind** Luminosity Snow
1788536788 37.22° C 36% 1019 hPa - - - -
1788535888 37.22° C 36% 1018.9 hPa - - - -
1788534987 36.67° C 35% 1019.2 hPa - - - -
1788534086 36.67° C 33% 1019.2 hPa - - - -
1788533186 37.22° C 30% 1019.3 hPa - - - -
1788532286 36.67° C 31% 1019.6 hPa - - - -
1788531386 37.22° C 30% 1019.8 hPa - - - -
1788530486 35.56° C 34% 1019.9 hPa - - - -
1788530155 36.11° C 33% 1020 hPa - - - -
1788529255 35.56° C 33% 1020.3 hPa - - - -
1788528354 36.11° C 31% 1020.4 hPa - - - -
1788527454 36.11° C 33% 1020.5 hPa - - - -
1788526554 34.44° C 35% 1020.7 hPa - - - -
1788525654 37.22° C 30% 1020.8 hPa - - - -
1788524754 36.67° C 33% 1020.8 hPa - - - -
1788523854 35.56° C 35% 1021 hPa - - - -
1788522954 37.22° C 32% 1021.2 hPa - - - -
1788522054 38.89° C 32% 1021.3 hPa - - - -
1788521153 38.89° C 31% 1021.3 hPa - - - -
1788520253 38.89° C 33% 1021.5 hPa - - - -
1788519353 37.78° C 34% 1021.7 hPa - - - -
1788518453 38.33° C 37% 1021.8 hPa - - - -
1788517552 40.56° C 31% 1022 hPa - - - -
1788516652 40° C 33% 1022.1 hPa - - - -
1788515752 37.78° C 38% 1022 hPa - - - -

* Rain since midnight (hover to see other rain measurements)
** Current wind speed in m/s (hover to see current wind gust speed)